Cookeville, TN (38501)

1:21 AM CDT on August 27, 2016 (GMT -0500)
Forrest Cove Ln and Forrest Rd | | Change Station

Elev 1079 ft 36.20 °N, 85.52 °W | Updated 6 seconds ago

Clear
Clear
74.3 °F
Feels Like 72 °F
N
0.0
Wind Variable Wind from ENE
Gusts 0.0 mph

Today
High -- | Low -- °F
--% Chance of Precip.
Yesterday
High -- | Low -- °F
Precip. -- in
Pressure 30.10 in
Visibility 10.0 miles
Clouds Clear
Heat Index 72 °F
Dew Point 71 °F
Humidity 92%
Rainfall 0.00 in
Snow Depth Not available.
6:10 AM 7:16 PM
Waning Crescent, 27% visible
METAR KSRB 270615Z AUTO 15003KT 10SM CLR 24/23 A3010 RMK
Pressure 30.10 in
Visibility 10.0 miles
Clouds Clear
Heat Index 72 °F
Dew Point 71 °F
Humidity 92%
Rainfall 0.00 in
Snow Depth Not available.
6:10 AM 7:16 PM
Waning Crescent, 27% visible
METAR KSRB 270615Z AUTO 15003KT 10SM CLR 24/23 A3010 RMK

10-Day Weather Forecast

Almanac

Astronomy

Aug. 27, 2016 Rise Set
Actual Time
Civil Twilight
Nautical Twilight
Astronomical Twilight
Moon
Length of Visible Light
Length of Day
Tomorrow will be .
, % of the Moon is Illuminated

Today's Extremes

State Highs State Lows

Community

WunderPhotos

Upload Photos

1,935,303 photos uploaded!

WunderBlog® & News

Nearby

Air Quality

  Air Quality AQ Index Pollutant
Not available.

Snow Depth

Station Depth Elevation

Earthquake Activity

City Distance Mag. Time & Date
Minimum magnitude displayed is 2.5.

Coastal Water Temperatures

Place Temperature

Stations

Nearby Weather Stations

Station Location Temp. Windchill Dew Point Humidity Wind Precip. Elev Updated Type
                   

Watches & Warnings

There are currently no watches in effect.